Time;durP1;ratioP1;P1;durP2;ratioP2;P2;SDS_P1;SDS_P2;PMS_P1;PMS_P2;Temp;Humidity;BMP_temperature;BMP_pressure;BME280_temperature;BME280_humidity;BME280_pressure;Samples;Min_cycle;Max_cycle;Signal;HPM_P1;HPM_P2
2023/11/12 00:56:44;;;;;;;6.43;3.27;;;5.30;93.20;;;;;;4997229;28;20400;-94
2023/11/12 01:25:07;;;;;;;3.97;1.70;;;5.10;97.20;;;;;;4980446;28;20188;-94
2023/11/12 02:10:49;;;;;;;2.87;2.17;;;5.10;99.20;;;;;;5967651;23;21600;-94
2023/11/12 02:15:51;;;;;;;1.83;1.53;;;5.10;99.60;;;;;;5915240;23;20439;-94
2023/11/12 06:18:13;;;;;;;1.40;1.30;;;1.90;99.90;;;;;;5551264;23;20235;-92
2023/11/12 06:20:40;;;;;;;2.63;1.50;;;1.80;99.90;;;;;;5203815;23;20239;-93
2023/11/12 06:23:07;;;;;;;1.67;1.30;;;1.70;99.90;;;;;;5198287;23;20300;-92
2023/11/12 06:25:34;;;;;;;1.67;1.47;;;1.70;99.90;;;;;;5005694;28;20180;-92
2023/11/12 06:28:01;;;;;;;1.40;1.30;;;1.70;99.90;;;;;;5013588;28;20195;-91
2023/11/12 06:30:28;;;;;;;1.50;1.40;;;1.70;99.90;;;;;;5014392;28;20227;-92
2023/11/12 06:32:54;;;;;;;1.40;1.30;;;1.70;99.90;;;;;;5007669;28;20204;-93
2023/11/12 06:35:23;;;;;;;1.90;1.67;;;1.70;99.90;;;;;;5006238;28;20199;-94
2023/11/12 06:45:28;;;;;;;2.70;1.70;;;1.80;99.90;;;;;;4984993;28;20235;-92
2023/11/12 06:47:55;;;;;;;1.80;1.70;;;1.80;99.90;;;;;;4984792;28;20193;-91
2023/11/12 06:50:23;;;;;;;2.87;2.23;;;1.80;99.90;;;;;;5531945;23;20211;-91
2023/11/12 07:26:32;;;;;;;2.10;1.37;;;2.70;99.90;;;;;;5395929;23;20231;-91
2023/11/12 07:31:35;;;;;;;1.20;1.10;;;3.10;99.90;;;;;;5018438;23;20231;-91
2023/11/12 07:34:02;;;;;;;1.20;1.10;;;3.20;99.90;;;;;;5310743;23;20300;-91
2023/11/12 07:36:29;;;;;;;2.40;1.10;;;3.20;99.90;;;;;;4982601;28;20581;-91
2023/11/12 07:38:56;;;;;;;2.37;1.00;;;3.10;99.80;;;;;;4976901;28;20204;-88
2023/11/12 07:41:23;;;;;;;1.37;1.20;;;3.30;99.90;;;;;;4978839;28;20208;-91
2023/11/12 07:43:51;;;;;;;2.07;1.20;;;3.50;99.90;;;;;;4975732;28;20204;-89
2023/11/12 07:46:18;;;;;;;1.30;1.20;;;3.60;99.50;;;;;;4974357;28;20201;-89
2023/11/12 08:09:19;;;;;;;1.50;1.40;;;3.60;98.60;;;;;;5123932;23;20223;-91
2023/11/12 08:14:24;;;;;;;2.10;1.90;;;3.90;98.70;;;;;;6141218;23;20181;-91
2023/11/12 08:19:28;;;;;;;1.50;1.30;;;4.20;98.10;;;;;;5669390;23;20211;-94
2023/11/12 08:53:16;;;;;;;1.88;1.67;;;5.40;94.50;;;;;;5600715;23;20238;-92
2023/11/12 08:55:43;;;;;;;1.60;1.40;;;5.40;94.70;;;;;;5066039;23;20700;-92
2023/11/12 08:58:10;;;;;;;1.67;1.30;;;5.30;94.00;;;;;;4993488;28;20212;-92
2023/11/12 09:00:37;;;;;;;2.17;1.43;;;5.20;94.30;;;;;;4992315;28;20200;-91
2023/11/12 09:03:08;;;;;;;1.50;1.40;;;5.30;94.50;;;;;;4978461;28;20686;-92
2023/11/12 09:05:36;;;;;;;1.58;1.48;;;5.10;94.20;;;;;;4980076;28;20213;-92
2023/11/12 09:08:03;;;;;;;1.58;1.48;;;5.10;95.10;;;;;;4980097;28;20201;-92
2023/11/12 09:10:30;;;;;;;2.10;1.67;;;5.30;94.60;;;;;;4976647;28;20319;-92
2023/11/12 09:12:57;;;;;;;1.83;1.63;;;5.70;93.60;;;;;;4946431;28;20267;-92
2023/11/12 09:15:24;;;;;;;1.83;1.35;;;6.00;92.30;;;;;;4936374;29;20202;-92
2023/11/12 09:17:53;;;;;;;1.27;1.10;;;6.20;91.30;;;;;;4937721;29;20207;-91
2023/11/12 09:20:22;;;;;;;1.58;1.40;;;6.30;91.00;;;;;;4948221;28;20205;-92
2023/11/12 09:22:49;;;;;;;1.42;1.30;;;6.30;90.30;;;;;;4940076;29;20209;-91
2023/11/12 09:25:16;;;;;;;1.92;1.40;;;6.20;91.50;;;;;;4939338;28;20206;-92
2023/11/12 09:30:25;;;;;;;1.30;1.20;;;6.40;90.70;;;;;;4944316;29;20218;-93
2023/11/12 09:32:52;;;;;;;2.83;1.20;;;6.60;90.40;;;;;;4950865;29;20257;-93
2023/11/12 09:44:10;;;;;;;1.55;1.33;;;7.90;73.50;;;;;;4962381;29;20171;-94
2023/11/12 09:47:13;;;;;;;2.33;1.70;;;7.70;81.40;;;;;;4956807;28;20205;-91
2023/11/12 09:49:41;;;;;;;1.92;1.60;;;7.40;83.00;;;;;;4959844;28;20205;-92
2023/11/12 09:52:08;;;;;;;2.20;1.90;;;7.30;82.50;;;;;;4958048;28;20225;-93
2023/11/12 09:54:39;;;;;;;2.33;1.70;;;7.10;83.90;;;;;;5068199;23;20305;-94
2023/11/12 09:57:10;;;;;;;2.63;2.08;;;6.90;85.20;;;;;;4959901;28;20206;-92
2023/11/12 09:59:41;;;;;;;2.38;1.92;;;6.80;90.00;;;;;;4961472;28;20205;-90
2023/11/12 10:04:57;;;;;;;2.72;1.98;;;6.70;90.00;;;;;;4955812;29;20674;-93
2023/11/12 10:07:26;;;;;;;2.13;1.55;;;7.00;90.00;;;;;;4962338;28;20201;-93
2023/11/12 10:09:54;;;;;;;2.47;1.85;;;7.30;87.70;;;;;;4955753;28;20296;-92
2023/11/12 10:12:21;;;;;;;2.97;1.83;;;7.50;86.00;;;;;;4957903;28;20264;-92
2023/11/12 10:18:02;;;;;;;1.98;1.83;;;8.10;79.20;;;;;;4956518;28;20201;-93
2023/11/12 10:20:31;;;;;;;2.08;1.70;;;8.00;76.30;;;;;;4976554;28;20197;-93
2023/11/12 10:22:58;;;;;;;3.00;1.92;;;7.60;80.90;;;;;;4981155;28;20216;-94
2023/11/12 10:25:40;;;;;;;3.58;1.70;;;7.20;80.80;;;;;;4969086;29;20290;-91
2023/11/12 10:30:54;;;;;;;2.30;1.73;;;6.80;87.30;;;;;;4934678;28;20304;-92
2023/11/12 10:33:29;;;;;;;2.55;2.00;;;7.00;89.40;;;;;;4963467;28;20224;-91
2023/11/12 10:36:08;;;;;;;2.95;1.80;;;7.00;89.10;;;;;;5018679;23;20233;-92
2023/11/12 10:38:47;;;;;;;4.07;1.90;;;7.60;87.80;;;;;;4919479;29;20207;-92
2023/11/12 10:41:23;;;;;;;2.78;1.70;;;7.70;83.40;;;;;;4919756;29;20600;-92
2023/11/12 10:49:28;;;;;;;4.18;2.10;;;8.30;79.20;;;;;;4918654;29;20206;-92
2023/11/12 10:51:56;;;;;;;3.15;2.13;;;8.20;76.90;;;;;;4909466;29;20703;-91
2023/11/12 10:54:29;;;;;;;2.80;1.90;;;8.50;73.40;;;;;;4902950;29;20231;-92
2023/11/12 10:56:56;;;;;;;2.20;2.00;;;8.60;68.50;;;;;;4897531;29;20203;-92
2023/11/12 10:59:23;;;;;;;3.75;2.25;;;8.50;68.50;;;;;;4893575;29;20206;-92
2023/11/12 11:01:53;;;;;;;4.05;2.10;;;8.40;59.90;;;;;;4902628;29;20206;-91
2023/11/12 11:04:41;;;;;;;3.55;1.60;;;8.00;72.00;;;;;;4904833;29;20744;-92
2023/11/12 11:07:08;;;;;;;2.65;2.00;;;7.60;72.50;;;;;;4900927;29;20210;-92
2023/11/12 11:09:35;;;;;;;3.38;2.08;;;7.60;72.40;;;;;;4895488;29;20207;-91
2023/11/12 11:14:43;;;;;;;2.83;1.80;;;8.30;73.20;;;;;;4901897;29;20238;-90
2023/11/12 11:17:37;;;;;;;3.47;2.00;;;8.80;65.60;;;;;;4903223;29;20201;-90
2023/11/12 11:20:11;;;;;;;3.35;2.20;;;8.90;60.60;;;;;;4900890;29;20558;-91
2023/11/12 11:22:38;;;;;;;2.75;1.83;;;8.80;53.70;;;;;;4895473;29;20275;-91
2023/11/12 11:25:25;;;;;;;2.30;1.60;;;8.80;58.30;;;;;;4890984;29;20226;-92
2023/11/12 11:28:18;;;;;;;1.92;1.60;;;9.00;53.10;;;;;;4896131;29;20202;-91
2023/11/12 11:31:10;;;;;;;1.95;1.42;;;8.90;55.00;;;;;;4894759;29;20211;-91
2023/11/12 11:36:28;;;;;;;3.55;1.40;;;8.50;57.60;;;;;;4901991;29;20214;-91
2023/11/12 11:42:20;;;;;;;3.03;1.50;;;8.60;56.50;;;;;;4893635;29;20209;-91
2023/11/12 11:45:05;;;;;;;1.60;1.45;;;8.30;55.40;;;;;;4893949;29;20290;-91
2023/11/12 11:47:35;;;;;;;2.15;1.50;;;8.00;62.10;;;;;;4892918;29;20648;-94
2023/11/12 11:52:55;;;;;;;1.20;1.10;;;7.90;72.70;;;;;;4952746;23;20331;-92
2023/11/12 11:56:11;;;;;;;1.45;1.35;;;8.10;67.20;;;;;;4915057;29;20207;-93
2023/11/12 11:58:46;;;;;;;2.78;1.73;;;8.20;65.10;;;;;;4912192;29;20206;-91
2023/11/12 12:01:13;;;;;;;1.95;1.38;;;8.10;61.60;;;;;;4920011;29;20202;-89
2023/11/12 12:03:42;;;;;;;2.22;1.50;;;8.10;73.00;;;;;;4917313;29;20214;-89
2023/11/12 12:06:15;;;;;;;2.20;1.60;;;8.20;62.30;;;;;;4915128;29;20206;-90
2023/11/12 12:11:33;;;;;;;2.92;1.60;;;8.40;61.00;;;;;;4919389;29;20277;-90
2023/11/12 12:14:04;;;;;;;2.08;1.65;;;8.50;58.30;;;;;;4917545;29;20210;-89
2023/11/12 12:16:32;;;;;;;2.92;1.60;;;8.70;58.30;;;;;;4922440;29;20198;-93
2023/11/12 12:19:00;;;;;;;2.28;1.73;;;8.70;57.40;;;;;;4915929;29;20202;-91
2023/11/12 12:21:30;;;;;;;2.58;1.55;;;8.70;56.30;;;;;;4917702;29;20707;-89
2023/11/12 12:23:59;;;;;;;2.47;1.60;;;8.60;58.30;;;;;;4930223;29;20720;-89
2023/11/12 12:26:28;;;;;;;2.53;1.63;;;8.50;56.70;;;;;;4917333;29;20214;-88
2023/11/12 12:28:58;;;;;;;2.22;1.70;;;8.40;59.50;;;;;;4916122;29;20284;-90
2023/11/12 12:31:28;;;;;;;2.85;2.25;;;8.40;61.10;;;;;;4916935;29;20222;-91
2023/11/12 12:33:59;;;;;;;2.17;1.80;;;8.50;63.30;;;;;;4916610;29;20207;-90
2023/11/12 12:36:26;;;;;;;1.90;1.58;;;8.60;62.00;;;;;;4914933;29;20214;-89
2023/11/12 12:38:58;;;;;;;3.22;1.70;;;8.60;59.40;;;;;;4918513;29;20289;-90
2023/11/12 12:41:25;;;;;;;1.83;1.73;;;8.80;59.20;;;;;;4919360;29;20203;-91
2023/11/12 12:43:56;;;;;;;1.50;1.38;;;8.90;55.50;;;;;;4920645;29;20258;-92
2023/11/12 12:46:24;;;;;;;3.05;2.00;;;8.90;54.20;;;;;;4919872;29;20640;-93
2023/11/12 12:48:53;;;;;;;1.83;1.67;;;8.70;57.10;;;;;;4929378;29;20211;-93
2023/11/12 12:51:21;;;;;;;2.15;1.80;;;8.60;55.30;;;;;;4924596;29;20221;-93
2023/11/12 12:53:48;;;;;;;1.73;1.40;;;8.50;57.60;;;;;;4925572;29;20265;-93
2023/11/12 12:56:18;;;;;;;2.00;1.80;;;8.60;57.40;;;;;;4922598;29;20203;-93
2023/11/12 12:58:46;;;;;;;1.88;1.42;;;8.70;56.40;;;;;;4917488;29;20214;-92
2023/11/12 13:01:14;;;;;;;3.67;1.83;;;8.90;55.50;;;;;;4918704;29;20227;-93
2023/11/12 13:03:44;;;;;;;2.35;1.60;;;8.90;50.60;;;;;;4917567;29;20325;-92
2023/11/12 13:06:13;;;;;;;2.08;1.50;;;9.10;47.60;;;;;;4920994;29;20217;-93
2023/11/12 13:08:43;;;;;;;3.55;1.30;;;9.00;47.50;;;;;;4917643;29;20739;-92
2023/11/12 13:11:11;;;;;;;1.40;1.30;;;9.00;47.50;;;;;;4916262;29;20246;-93
2023/11/12 13:16:20;;;;;;;3.88;1.60;;;9.10;47.60;;;;;;4917698;29;20217;-93
2023/11/12 13:18:47;;;;;;;2.13;1.20;;;9.10;47.10;;;;;;4918027;29;20207;-92
2023/11/12 13:21:16;;;;;;;3.15;1.33;;;8.90;48.40;;;;;;4921994;29;20638;-93
2023/11/12 13:23:42;;;;;;;2.55;1.60;;;8.90;48.40;;;;;;4917317;29;20202;-93
2023/11/12 13:26:11;;;;;;;2.83;1.60;;;8.90;48.70;;;;;;4917452;29;20706;-92
2023/11/12 13:28:42;;;;;;;1.33;1.23;;;9.10;47.60;;;;;;4915619;29;20340;-93
2023/11/12 13:31:10;;;;;;;1.88;1.33;;;9.10;47.60;;;;;;4923353;29;20222;-92
2023/11/12 13:33:41;;;;;;;2.42;1.63;;;9.00;47.50;;;;;;4924194;29;20194;-93
2023/11/12 13:36:10;;;;;;;1.88;1.52;;;8.90;45.90;;;;;;4938815;28;20218;-92
2023/11/12 13:38:37;;;;;;;2.08;1.50;;;8.90;47.40;;;;;;4940925;29;20182;-92
2023/11/12 13:41:10;;;;;;;2.50;1.60;;;8.80;45.10;;;;;;4943836;28;20213;-92
2023/11/12 13:43:39;;;;;;;2.15;1.35;;;8.60;47.20;;;;;;4923930;29;20226;-92
2023/11/12 13:46:06;;;;;;;1.67;1.40;;;8.50;48.90;;;;;;4914534;29;20203;-91
2023/11/12 13:48:33;;;;;;;3.25;1.80;;;8.60;51.40;;;;;;4919451;29;20218;-91
2023/11/12 13:51:02;;;;;;;8.43;4.88;;;8.60;47.20;;;;;;4914440;29;20234;-91
2023/11/12 13:53:29;;;;;;;2.97;1.70;;;8.60;49.80;;;;;;4919080;29;20306;-91
2023/11/12 13:55:57;;;;;;;3.67;2.40;;;8.60;47.60;;;;;;4919247;29;20203;-91
2023/11/12 13:58:24;;;;;;;4.53;2.00;;;8.50;50.10;;;;;;4921123;29;20226;-91
2023/11/12 14:00:53;;;;;;;8.10;5.88;;;8.50;50.70;;;;;;4923651;29;20257;-91
2023/11/12 14:03:20;;;;;;;2.28;1.83;;;8.50;51.80;;;;;;4914954;29;20211;-91
2023/11/12 14:05:48;;;;;;;3.38;2.45;;;8.60;51.40;;;;;;4917563;29;20198;-91
2023/11/12 14:08:17;;;;;;;3.90;1.98;;;8.70;51.60;;;;;;4914843;29;20214;-91
2023/11/12 14:10:48;;;;;;;3.00;2.10;;;8.70;51.40;;;;;;4917398;29;20222;-90
2023/11/12 14:13:15;;;;;;;2.67;1.75;;;8.60;53.00;;;;;;4914751;29;20195;-91
2023/11/12 14:15:43;;;;;;;2.38;1.33;;;8.50;54.50;;;;;;4916178;29;20203;-91
2023/11/12 14:18:12;;;;;;;1.73;1.50;;;8.50;55.30;;;;;;4919163;29;20976;-92
2023/11/12 14:20:38;;;;;;;1.73;1.52;;;8.40;57.60;;;;;;4921094;29;20202;-91
2023/11/12 14:23:06;;;;;;;1.70;1.60;;;8.30;58.70;;;;;;4917296;29;20207;-91
2023/11/12 14:25:33;;;;;;;1.95;1.60;;;8.20;58.10;;;;;;4915094;29;20218;-91
2023/11/12 14:28:00;;;;;;;2.22;1.48;;;8.20;60.60;;;;;;4913180;29;20203;-91
2023/11/12 14:30:27;;;;;;;2.10;1.70;;;8.20;62.30;;;;;;4917025;29;20199;-90
2023/11/12 14:32:54;;;;;;;2.45;1.33;;;8.10;64.00;;;;;;4920315;29;20238;-91
2023/11/12 14:35:22;;;;;;;1.92;1.80;;;8.00;65.10;;;;;;4916675;29;20204;-91
2023/11/12 14:37:49;;;;;;;1.67;1.50;;;7.90;65.50;;;;;;4918719;29;20203;-90
2023/11/12 14:40:16;;;;;;;2.22;1.70;;;7.90;69.10;;;;;;4915178;29;20237;-92
2023/11/12 14:42:43;;;;;;;3.15;1.88;;;7.80;71.70;;;;;;4915490;29;20202;-90
2023/11/12 14:45:12;;;;;;;2.28;1.70;;;7.80;72.60;;;;;;4915582;29;20247;-91
2023/11/12 14:47:40;;;;;;;2.28;1.80;;;7.70;72.60;;;;;;4924762;29;20207;-91
2023/11/12 14:50:10;;;;;;;1.90;1.70;;;7.60;72.40;;;;;;4922856;29;20297;-91
2023/11/12 14:52:41;;;;;;;2.70;1.90;;;7.60;72.40;;;;;;4921533;29;20553;-90
2023/11/12 14:55:09;;;;;;;1.70;1.60;;;7.60;72.60;;;;;;4921713;29;20222;-90
2023/11/12 14:57:38;;;;;;;2.58;1.80;;;7.60;72.40;;;;;;4910619;29;20203;-90
2023/11/12 15:00:12;;;;;;;2.30;1.95;;;7.50;72.30;;;;;;4917207;29;20207;-89
2023/11/12 15:02:39;;;;;;;1.67;1.15;;;7.60;74.70;;;;;;4914020;29;20266;-89
2023/11/12 15:05:08;;;;;;;1.63;1.10;;;7.40;71.80;;;;;;4916820;29;20656;-89
2023/11/12 15:07:37;;;;;;;0.73;0.73;;;7.30;72.20;;;;;;4916915;29;20210;-89
2023/11/12 15:10:06;;;;;;;0.80;0.80;;;7.20;72.10;;;;;;4905848;29;20206;-90
2023/11/12 15:12:33;;;;;;;1.73;1.10;;;7.10;72.60;;;;;;4925119;29;20576;-89
2023/11/12 15:15:03;;;;;;;0.90;0.90;;;7.10;75.60;;;;;;4914537;29;20250;-88
2023/11/12 15:17:30;;;;;;;1.55;1.20;;;7.00;81.30;;;;;;4919648;29;20206;-89
2023/11/12 15:19:57;;;;;;;0.70;0.70;;;6.90;80.70;;;;;;4919659;29;20202;-90
2023/11/12 15:22:26;;;;;;;2.33;2.13;;;6.80;81.60;;;;;;4911982;29;20207;-91
2023/11/12 15:24:53;;;;;;;0.90;0.88;;;6.70;83.90;;;;;;4918330;29;20194;-90
2023/11/12 15:27:21;;;;;;;1.20;1.00;;;6.70;87.20;;;;;;4910917;29;20202;-89
2023/11/12 15:29:49;;;;;;;1.25;1.10;;;6.60;90.30;;;;;;4917993;29;20665;-89
2023/11/12 15:32:16;;;;;;;1.40;1.30;;;6.70;91.00;;;;;;4918442;29;20793;-92
2023/11/12 15:34:43;;;;;;;1.40;1.10;;;6.70;91.90;;;;;;4914445;29;20205;-89
2023/11/12 15:37:11;;;;;;;1.08;1.08;;;6.70;91.60;;;;;;4923784;29;20198;-90
2023/11/12 15:39:40;;;;;;;1.13;1.02;;;6.80;91.50;;;;;;4902536;29;20199;-90
2023/11/12 15:42:08;;;;;;;1.98;1.02;;;6.60;91.80;;;;;;4917861;29;20301;-89
2023/11/12 15:44:37;;;;;;;0.73;0.73;;;6.40;93.00;;;;;;4915543;29;20273;-89
2023/11/12 15:47:04;;;;;;;2.30;0.90;;;6.40;92.90;;;;;;4914814;29;20217;-89
2023/11/12 15:49:31;;;;;;;1.23;1.00;;;6.40;92.70;;;;;;4916919;29;20210;-89
2023/11/12 15:51:59;;;;;;;1.30;1.20;;;6.30;93.60;;;;;;4910764;29;20695;-89
2023/11/12 15:54:27;;;;;;;1.60;1.50;;;6.20;92.90;;;;;;4922184;29;20198;-87
2023/11/12 15:56:54;;;;;;;1.55;1.27;;;6.20;93.60;;;;;;4913596;29;20199;-88
2023/11/12 15:59:22;;;;;;;1.88;1.20;;;6.10;94.10;;;;;;4919800;29;20212;-95
2023/11/12 16:01:50;;;;;;;1.67;1.20;;;6.10;94.80;;;;;;4895850;29;20209;-90
2023/11/12 16:04:17;;;;;;;1.20;1.10;;;6.10;94.50;;;;;;4909930;29;20198;-91
2023/11/12 16:06:44;;;;;;;1.00;1.00;;;6.00;94.70;;;;;;4914840;29;20221;-92
2023/11/12 16:09:12;;;;;;;1.63;1.15;;;5.90;95.30;;;;;;4912796;29;20314;-92
2023/11/12 16:11:39;;;;;;;1.88;1.30;;;5.90;96.70;;;;;;4926441;29;20209;-92
2023/11/12 16:14:06;;;;;;;2.72;1.25;;;5.80;97.20;;;;;;4921190;29;20205;-91
2023/11/12 16:16:33;;;;;;;2.40;1.70;;;5.80;97.50;;;;;;4920905;29;20206;-91
2023/11/12 16:19:02;;;;;;;2.40;1.67;;;5.70;97.40;;;;;;4915507;29;20203;-91
2023/11/12 16:21:29;;;;;;;2.03;1.80;;;5.70;97.80;;;;;;4923887;29;20207;-88
2023/11/12 16:23:56;;;;;;;3.38;1.88;;;5.70;98.20;;;;;;4927715;29;20209;-86
2023/11/12 16:26:23;;;;;;;4.20;1.85;;;5.70;99.10;;;;;;4921759;29;20576;-87
2023/11/12 16:28:50;;;;;;;5.38;1.70;;;5.60;99.10;;;;;;4922398;29;20251;-88
2023/11/12 16:31:17;;;;;;;2.27;1.50;;;5.60;99.30;;;;;;4919472;29;20225;-89
2023/11/12 16:33:44;;;;;;;1.60;1.50;;;5.50;99.30;;;;;;4927956;29;20317;-88
2023/11/12 16:36:12;;;;;;;1.88;1.30;;;5.50;99.80;;;;;;4918947;29;20202;-87
2023/11/12 16:38:40;;;;;;;2.00;1.52;;;5.40;99.90;;;;;;4915758;29;20273;-88
2023/11/12 16:41:08;;;;;;;2.17;1.77;;;5.50;99.60;;;;;;4917568;29;20667;-88
2023/11/12 16:43:36;;;;;;;4.97;2.47;;;5.50;99.40;;;;;;4920183;29;20203;-89
2023/11/12 16:46:03;;;;;;;5.33;2.60;;;5.40;99.50;;;;;;4916923;29;20202;-91
2023/11/12 16:48:30;;;;;;;4.93;2.47;;;5.40;99.80;;;;;;4922232;29;20656;-90
2023/11/12 16:50:57;;;;;;;2.23;1.60;;;5.60;98.90;;;;;;4920723;29;20223;-91
2023/11/12 16:53:25;;;;;;;2.03;1.40;;;5.60;98.70;;;;;;4926316;29;20221;-92
2023/11/12 16:55:54;;;;;;;1.53;1.40;;;5.50;98.30;;;;;;4939186;29;20239;-89
2023/11/12 16:58:21;;;;;;;2.67;1.63;;;5.40;97.80;;;;;;4943123;28;20214;-89
2023/11/12 17:00:48;;;;;;;3.47;1.60;;;5.30;99.00;;;;;;4929354;29;20206;-90
2023/11/12 17:03:15;;;;;;;2.77;1.53;;;5.30;99.90;;;;;;4912177;29;20655;-91
2023/11/12 17:05:42;;;;;;;2.03;1.43;;;5.20;99.90;;;;;;4915214;29;20210;-90
2023/11/12 17:08:10;;;;;;;1.70;1.30;;;5.20;99.90;;;;;;4914993;29;20294;-91
2023/11/12 17:10:38;;;;;;;4.33;1.57;;;5.10;99.90;;;;;;4918157;29;20205;-90
2023/11/12 17:13:05;;;;;;;2.57;1.57;;;5.10;99.90;;;;;;4915611;29;20674;-90
2023/11/12 17:15:32;;;;;;;3.37;1.63;;;5.10;99.90;;;;;;4915304;29;20649;-91
2023/11/12 17:17:58;;;;;;;6.87;1.70;;;5.10;99.90;;;;;;4911946;29;20206;-87
2023/11/12 17:20:26;;;;;;;2.63;1.70;;;5.10;99.90;;;;;;4920251;29;20202;-87
2023/11/12 17:22:53;;;;;;;2.07;1.60;;;5.10;99.90;;;;;;4915548;29;20213;-89
2023/11/12 17:25:20;;;;;;;3.10;1.50;;;5.00;99.90;;;;;;4921836;29;20195;-87
2023/11/12 17:27:49;;;;;;;2.40;1.43;;;5.10;99.90;;;;;;4918996;29;20207;-90
2023/11/12 17:30:17;;;;;;;1.77;1.50;;;5.10;99.90;;;;;;4923133;29;20202;-91
2023/11/12 17:32:44;;;;;;;1.80;1.60;;;5.00;99.90;;;;;;4919007;29;20226;-89
2023/11/12 17:35:14;;;;;;;3.30;2.00;;;5.00;99.90;;;;;;4915676;29;20195;-87
2023/11/12 17:37:41;;;;;;;5.23;2.07;;;4.90;99.90;;;;;;4918354;29;20211;-90
2023/11/12 17:40:10;;;;;;;2.03;1.77;;;4.90;99.90;;;;;;4916782;29;20218;-91
2023/11/12 17:42:37;;;;;;;1.83;1.63;;;4.90;99.90;;;;;;4913485;29;20240;-88
2023/11/12 17:45:10;;;;;;;1.73;1.53;;;4.80;99.90;;;;;;4916464;29;20198;-89
2023/11/12 17:47:37;;;;;;;2.10;1.70;;;4.60;99.90;;;;;;4922219;29;20202;-90
2023/11/12 17:50:06;;;;;;;1.60;1.50;;;4.60;99.90;;;;;;4918735;29;20207;-89
2023/11/12 17:52:33;;;;;;;2.23;1.60;;;4.60;99.90;;;;;;4918175;29;20239;-90
2023/11/12 17:54:59;;;;;;;4.10;1.90;;;4.60;99.90;;;;;;4919355;29;20222;-85
2023/11/12 17:57:27;;;;;;;2.10;1.80;;;4.60;99.90;;;;;;4917870;29;20206;-90
2023/11/12 17:59:54;;;;;;;3.53;1.60;;;4.60;99.90;;;;;;4916684;29;20285;-87
2023/11/12 18:02:24;;;;;;;2.53;1.70;;;4.50;99.90;;;;;;4915653;29;20276;-89
2023/11/12 18:04:51;;;;;;;1.50;1.40;;;4.50;99.90;;;;;;4915497;29;20564;-89
2023/11/12 18:07:18;;;;;;;2.97;1.80;;;4.40;99.90;;;;;;4911776;29;20206;-89
2023/11/12 18:09:46;;;;;;;2.67;1.70;;;4.40;99.90;;;;;;4919842;29;20206;-93
2023/11/12 18:12:13;;;;;;;2.63;1.70;;;4.40;99.90;;;;;;4927634;29;20202;-90
2023/11/12 18:14:40;;;;;;;2.27;1.53;;;4.40;99.90;;;;;;4920433;29;20209;-92
2023/11/12 18:17:07;;;;;;;1.50;1.40;;;4.40;99.90;;;;;;4926481;29;20213;-92
2023/11/12 18:19:36;;;;;;;3.50;1.70;;;4.40;99.90;;;;;;4919845;29;20213;-91
2023/11/12 18:22:04;;;;;;;2.73;1.67;;;4.40;99.90;;;;;;4918608;29;20214;-88
2023/11/12 18:24:30;;;;;;;2.47;1.80;;;4.30;99.90;;;;;;4910453;29;20204;-90
2023/11/12 18:26:57;;;;;;;2.67;2.20;;;4.30;99.90;;;;;;4918271;29;20210;-90
2023/11/12 18:29:24;;;;;;;3.67;2.50;;;4.30;99.90;;;;;;4924768;29;20210;-88
2023/11/12 18:31:54;;;;;;;4.87;2.17;;;4.30;99.90;;;;;;4916369;29;20221;-89
2023/11/12 18:34:22;;;;;;;3.13;2.30;;;4.30;99.90;;;;;;4917009;29;20570;-91
2023/11/12 18:36:50;;;;;;;3.63;2.40;;;4.30;99.90;;;;;;4913389;29;20223;-91
2023/11/12 18:39:17;;;;;;;5.00;2.50;;;4.30;99.90;;;;;;4913319;29;20207;-89
2023/11/12 18:41:44;;;;;;;4.37;2.77;;;4.30;99.90;;;;;;4919385;29;20198;-90
2023/11/12 18:44:13;;;;;;;6.50;3.03;;;4.30;99.90;;;;;;4917838;29;20199;-90
2023/11/12 18:46:42;;;;;;;6.30;3.20;;;4.40;99.90;;;;;;4921274;29;20307;-89
2023/11/12 18:49:10;;;;;;;5.03;3.03;;;4.30;99.90;;;;;;4915174;29;20239;-90
2023/11/12 18:51:37;;;;;;;3.97;2.97;;;4.30;99.90;;;;;;4914077;29;20660;-91
2023/11/12 18:54:06;;;;;;;4.20;2.57;;;4.40;99.90;;;;;;4915938;29;20241;-90
2023/11/12 18:56:35;;;;;;;4.00;2.77;;;4.40;99.90;;;;;;4917661;29;20210;-92
2023/11/12 18:59:04;;;;;;;3.63;2.50;;;4.40;99.90;;;;;;4916933;29;20209;-89
2023/11/12 19:01:34;;;;;;;3.70;2.63;;;4.30;99.90;;;;;;4914763;29;20206;-90
2023/11/12 19:04:02;;;;;;;4.40;2.60;;;4.50;99.90;;;;;;4914959;29;20254;-90
2023/11/12 19:06:36;;;;;;;7.30;3.30;;;4.50;99.90;;;;;;4911423;29;20246;-91
2023/11/12 19:09:07;;;;;;;4.40;2.90;;;4.50;99.90;;;;;;4906923;29;20238;-91
2023/11/12 19:11:34;;;;;;;3.77;2.90;;;4.60;99.90;;;;;;4914108;29;20214;-89
2023/11/12 19:14:06;;;;;;;3.97;2.80;;;4.60;99.90;;;;;;4914110;29;20316;-90
2023/11/12 19:16:33;;;;;;;3.37;2.73;;;4.50;99.90;;;;;;4910757;29;20226;-89
2023/11/12 19:19:01;;;;;;;6.20;3.17;;;4.50;99.90;;;;;;4915010;29;20210;-91
2023/11/12 19:21:28;;;;;;;3.37;2.80;;;4.40;99.90;;;;;;4914708;29;20668;-90
2023/11/12 19:23:56;;;;;;;4.37;2.50;;;4.40;99.90;;;;;;4919877;29;20679;-91
2023/11/12 19:26:24;;;;;;;4.33;2.87;;;4.40;99.90;;;;;;4914386;29;20430;-90
2023/11/12 19:28:51;;;;;;;3.50;2.23;;;4.40;99.90;;;;;;4910888;29;20211;-90
2023/11/12 19:31:18;;;;;;;3.63;2.67;;;4.40;99.90;;;;;;4913901;29;20195;-90
2023/11/12 19:33:45;;;;;;;4.17;2.73;;;4.40;99.90;;;;;;4915772;29;20225;-90
2023/11/12 19:36:12;;;;;;;5.20;2.83;;;4.40;99.90;;;;;;4912270;29;20203;-89
2023/11/12 19:38:40;;;;;;;5.63;3.03;;;4.40;99.90;;;;;;4911214;29;20202;-90
2023/11/12 19:41:11;;;;;;;4.23;3.20;;;4.40;99.90;;;;;;4915814;29;20203;-90
2023/11/12 19:43:40;;;;;;;6.33;3.00;;;4.40;99.90;;;;;;4917461;29;20198;-90
2023/11/12 19:46:06;;;;;;;6.47;3.63;;;4.40;99.90;;;;;;4913276;29;20198;-90
2023/11/12 19:48:35;;;;;;;5.23;2.67;;;4.40;99.90;;;;;;4915124;29;20214;-90
2023/11/12 19:51:02;;;;;;;5.03;2.97;;;4.40;99.90;;;;;;4914279;29;20226;-90
2023/11/12 19:53:29;;;;;;;2.93;2.60;;;4.40;99.90;;;;;;4921158;29;20308;-90
2023/11/12 19:55:56;;;;;;;3.20;2.53;;;4.40;99.90;;;;;;4912975;29;20207;-90
2023/11/12 19:58:25;;;;;;;4.63;3.00;;;4.60;99.90;;;;;;4912114;29;20274;-90
2023/11/12 20:00:54;;;;;;;3.73;2.90;;;4.50;99.90;;;;;;4912550;29;20196;-91
2023/11/12 20:03:21;;;;;;;3.70;3.00;;;4.50;99.90;;;;;;4913093;29;20202;-90
2023/11/12 20:05:48;;;;;;;5.43;3.67;;;4.60;99.90;;;;;;4913634;29;20684;-90
2023/11/12 20:08:15;;;;;;;4.57;3.50;;;4.60;99.90;;;;;;4897760;29;20206;-90
2023/11/12 20:10:42;;;;;;;3.47;3.17;;;4.60;99.90;;;;;;4919656;29;20207;-92
2023/11/12 20:13:13;;;;;;;4.93;3.50;;;4.60;99.90;;;;;;4927646;29;20237;-92
2023/11/12 20:15:40;;;;;;;5.00;3.60;;;4.60;99.90;;;;;;4927459;29;20206;-93
2023/11/12 20:18:09;;;;;;;4.77;3.27;;;4.60;99.90;;;;;;4931607;29;20263;-92
2023/11/12 20:20:38;;;;;;;5.87;3.37;;;4.60;99.90;;;;;;4919879;29;20673;-92
2023/11/12 20:23:06;;;;;;;6.13;3.37;;;4.60;99.90;;;;;;4917898;29;20231;-92
2023/11/12 20:25:35;;;;;;;6.70;4.63;;;4.70;99.90;;;;;;4917743;29;20203;-92
2023/11/12 20:28:02;;;;;;;8.83;4.40;;;4.80;99.90;;;;;;4920913;29;20627;-92
2023/11/12 20:30:33;;;;;;;6.10;4.00;;;4.80;99.90;;;;;;4917800;29;20206;-90
2023/11/12 20:33:01;;;;;;;4.97;3.60;;;4.70;99.90;;;;;;4914483;29;20308;-92
2023/11/12 20:35:30;;;;;;;4.80;3.87;;;4.70;99.90;;;;;;4912359;29;21508;-92
2023/11/12 20:37:58;;;;;;;4.70;3.33;;;4.70;99.90;;;;;;4916368;29;20213;-92
2023/11/12 20:40:26;;;;;;;6.87;3.60;;;4.80;99.90;;;;;;4898989;29;20204;-92
2023/11/12 20:42:53;;;;;;;4.07;3.67;;;4.80;99.90;;;;;;4913211;29;20262;-92
2023/11/12 20:45:20;;;;;;;5.07;3.53;;;4.80;99.90;;;;;;4912865;29;20195;-92
2023/11/12 20:47:51;;;;;;;5.87;3.30;;;4.80;99.90;;;;;;4916244;29;20286;-91
2023/11/12 20:50:18;;;;;;;3.67;3.03;;;4.70;99.90;;;;;;4914929;29;20221;-92
2023/11/12 20:52:48;;;;;;;4.50;2.90;;;4.70;99.90;;;;;;4920448;29;20237;-91
2023/11/12 20:55:15;;;;;;;5.83;3.47;;;4.70;99.90;;;;;;4909032;29;20262;-91
2023/11/12 20:57:43;;;;;;;4.57;3.00;;;4.70;99.90;;;;;;4910597;29;20209;-91
2023/11/12 21:00:11;;;;;;;3.47;2.70;;;4.70;99.90;;;;;;4915279;29;20241;-92
2023/11/12 21:02:38;;;;;;;5.23;3.10;;;4.70;99.90;;;;;;4915533;29;20203;-91
2023/11/12 21:05:05;;;;;;;4.20;2.57;;;4.70;99.90;;;;;;4918263;29;20258;-92
2023/11/12 21:07:32;;;;;;;4.93;2.90;;;4.70;99.90;;;;;;4901469;29;20214;-92
2023/11/12 21:10:00;;;;;;;4.33;3.00;;;4.80;99.90;;;;;;4918626;29;20219;-92
2023/11/12 21:12:27;;;;;;;3.47;2.90;;;4.70;99.90;;;;;;4920595;29;20230;-92
2023/11/12 21:14:54;;;;;;;4.03;2.80;;;4.70;99.90;;;;;;4914207;29;20517;-91
2023/11/12 21:17:21;;;;;;;4.23;2.80;;;4.70;99.90;;;;;;4919381;29;20214;-92
2023/11/12 21:19:49;;;;;;;3.77;2.67;;;4.70;99.90;;;;;;4915415;29;20294;-91
2023/11/12 21:22:15;;;;;;;4.30;2.60;;;4.80;99.90;;;;;;4916135;29;20270;-92
2023/11/12 21:24:42;;;;;;;2.47;2.10;;;4.80;99.90;;;;;;4916994;29;20202;-92
2023/11/12 21:27:12;;;;;;;2.17;1.97;;;4.70;99.90;;;;;;4919012;29;20290;-91
2023/11/12 21:29:39;;;;;;;3.73;2.57;;;4.70;99.90;;;;;;4924747;29;20203;-92
2023/11/12 21:32:08;;;;;;;3.27;2.40;;;4.70;99.90;;;;;;4917265;29;20262;-92
2023/11/12 21:34:35;;;;;;;2.50;2.00;;;4.70;99.90;;;;;;4926435;29;20226;-92
2023/11/12 21:37:03;;;;;;;2.33;1.93;;;4.70;99.90;;;;;;4918525;29;20226;-91